Time;durP1;ratioP1;P1;durP2;ratioP2;P2;SDS_P1;SDS_P2;PMS_P1;PMS_P2;Temp;Humidity;BMP_temperature;BMP_pressure;BME280_temperature;BME280_humidity;BME280_pressure;Samples;Min_cycle;Max_cycle;Signal;HPM_P1;HPM_P2
2022/04/04 00:02:21;;;;;;;9.80;4.93;;;-2.10;55.10;;;;;;5060265;28;47061;-62
2022/04/04 00:04:46;;;;;;;10.60;5.30;;;-2.20;55.00;;;;;;5053331;28;46284;-63
2022/04/04 00:07:12;;;;;;;9.97;4.93;;;-2.20;55.00;;;;;;5059054;28;46510;-62
2022/04/04 00:09:38;;;;;;;8.67;4.20;;;-2.20;55.00;;;;;;5056137;28;45879;-64
2022/04/04 00:12:04;;;;;;;9.50;4.68;;;-2.20;55.00;;;;;;5059270;28;46459;-62
2022/04/04 00:14:30;;;;;;;9.13;4.63;;;-2.20;55.00;;;;;;5055760;28;45828;-63
2022/04/04 00:16:56;;;;;;;8.67;4.53;;;-2.20;55.00;;;;;;5056457;28;45915;-62
2022/04/04 00:19:24;;;;;;;9.83;4.60;;;-2.20;56.20;;;;;;5053263;28;46657;-64
2022/04/04 00:21:50;;;;;;;10.00;5.22;;;-2.20;55.00;;;;;;5055091;28;46400;-63
2022/04/04 00:24:15;;;;;;;9.97;4.93;;;-2.20;55.00;;;;;;5052602;28;46509;-62
2022/04/04 00:26:41;;;;;;;6.57;4.30;;;-2.20;55.00;;;;;;5057753;28;45857;-62
2022/04/04 00:29:07;;;;;;;8.17;5.00;;;-2.20;55.00;;;;;;5055956;28;46311;-63
2022/04/04 00:31:32;;;;;;;8.73;4.50;;;-2.30;56.40;;;;;;5050305;28;46375;-63
2022/04/04 00:33:58;;;;;;;8.73;5.07;;;-2.30;55.40;;;;;;5050476;28;46430;-62
2022/04/04 00:36:23;;;;;;;12.30;4.90;;;-2.30;55.50;;;;;;5058507;28;46363;-63
2022/04/04 00:38:49;;;;;;;6.60;4.20;;;-2.40;55.70;;;;;;5058114;28;46331;-62
2022/04/04 00:41:15;;;;;;;7.83;5.20;;;-2.40;55.80;;;;;;5059911;28;46420;-63
2022/04/04 00:43:42;;;;;;;9.83;5.47;;;-2.40;56.00;;;;;;5058732;28;46454;-63
2022/04/04 00:46:07;;;;;;;7.85;4.35;;;-2.40;56.10;;;;;;5059543;28;45830;-62
2022/04/04 00:48:34;;;;;;;7.63;4.73;;;-2.40;56.10;;;;;;5060378;28;46319;-63
2022/04/04 00:51:01;;;;;;;8.70;4.72;;;-2.40;56.20;;;;;;5058840;28;46352;-63
2022/04/04 00:53:27;;;;;;;10.23;5.72;;;-2.50;56.20;;;;;;5057738;28;46641;-64
2022/04/04 00:55:54;;;;;;;8.88;5.45;;;-2.50;56.30;;;;;;5057814;28;46430;-64
2022/04/04 00:58:21;;;;;;;8.73;5.07;;;-2.50;56.50;;;;;;5055281;28;46637;-64
2022/04/04 01:00:48;;;;;;;8.65;5.53;;;-2.50;56.30;;;;;;5054476;28;46444;-62
2022/04/04 01:03:15;;;;;;;8.60;5.13;;;-2.50;56.50;;;;;;5059242;28;46390;-62
2022/04/04 01:05:43;;;;;;;9.52;5.05;;;-2.50;56.50;;;;;;5055677;28;46421;-62
2022/04/04 01:08:14;;;;;;;8.27;5.00;;;-2.50;56.70;;;;;;5057637;28;46335;-63
2022/04/04 01:10:41;;;;;;;10.88;5.43;;;-2.60;56.70;;;;;;5059034;28;46018;-62
2022/04/04 01:13:07;;;;;;;11.05;5.45;;;-2.60;56.90;;;;;;5059124;28;46296;-63
2022/04/04 01:15:33;;;;;;;13.10;5.87;;;-2.60;57.00;;;;;;5059529;28;46352;-63
2022/04/04 01:17:59;;;;;;;11.13;5.90;;;-2.70;57.00;;;;;;5063462;28;46392;-62
2022/04/04 01:20:25;;;;;;;10.70;5.70;;;-2.70;57.10;;;;;;5061797;28;46484;-63
2022/04/04 01:22:52;;;;;;;13.50;5.00;;;-2.70;57.20;;;;;;5062227;28;46202;-62
2022/04/04 01:25:24;;;;;;;12.30;4.97;;;-2.70;58.40;;;;;;5057728;28;46470;-64
2022/04/04 01:27:50;;;;;;;7.35;5.07;;;-2.70;57.30;;;;;;5062413;28;45831;-61
2022/04/04 01:30:15;;;;;;;10.07;4.85;;;-2.70;57.30;;;;;;5062483;28;46434;-62
2022/04/04 01:32:41;;;;;;;12.30;5.63;;;-2.80;57.30;;;;;;5059426;28;46405;-64
2022/04/04 01:35:07;;;;;;;8.93;4.37;;;-2.80;57.40;;;;;;5053257;28;46723;-62
2022/04/04 01:37:33;;;;;;;9.02;5.00;;;-2.80;57.50;;;;;;5034715;28;45975;-62
2022/04/04 01:39:58;;;;;;;12.23;5.07;;;-2.80;57.60;;;;;;5054204;28;46658;-64
2022/04/04 01:42:24;;;;;;;11.30;5.07;;;-2.90;57.50;;;;;;5057154;28;46465;-62
2022/04/04 01:44:50;;;;;;;8.97;5.47;;;-2.90;57.60;;;;;;5056970;28;46468;-62
2022/04/04 01:47:16;;;;;;;13.55;5.65;;;-2.90;57.60;;;;;;5061316;28;46477;-63
2022/04/04 01:49:42;;;;;;;14.03;5.50;;;-2.90;57.70;;;;;;5056474;28;46423;-64
2022/04/04 01:52:08;;;;;;;15.17;6.27;;;-2.90;57.70;;;;;;5052271;28;46427;-63
2022/04/04 01:54:33;;;;;;;10.70;5.95;;;-3.00;57.70;;;;;;5060368;28;46313;-63
2022/04/04 01:56:59;;;;;;;9.50;5.47;;;-3.00;57.60;;;;;;5055528;28;46372;-63
2022/04/04 01:59:24;;;;;;;10.33;6.07;;;-3.00;57.70;;;;;;5055062;28;46335;-64
2022/04/04 02:01:51;;;;;;;8.87;4.87;;;-3.00;57.70;;;;;;5057772;28;46430;-64
2022/04/04 02:04:17;;;;;;;13.80;6.63;;;-3.00;57.80;;;;;;5055537;28;46345;-64
2022/04/04 02:06:43;;;;;;;9.93;5.43;;;-3.10;57.70;;;;;;5057946;28;46682;-63
2022/04/04 02:09:09;;;;;;;13.57;5.60;;;-3.10;57.90;;;;;;5057185;28;47254;-63
2022/04/04 02:11:34;;;;;;;10.10;5.90;;;-3.10;58.10;;;;;;5056393;28;46093;-64
2022/04/04 02:14:02;;;;;;;10.90;6.00;;;-3.10;58.00;;;;;;5058280;28;46398;-63
2022/04/04 02:16:28;;;;;;;11.43;5.80;;;-3.10;58.20;;;;;;5056905;28;46528;-65
2022/04/04 02:18:54;;;;;;;10.48;5.57;;;-3.20;58.20;;;;;;5057649;28;47318;-63
2022/04/04 02:21:19;;;;;;;10.90;5.23;;;-3.20;58.20;;;;;;5058109;28;46374;-63
2022/04/04 02:23:45;;;;;;;10.63;5.60;;;-3.20;58.40;;;;;;5060774;28;46700;-63
2022/04/04 02:26:11;;;;;;;8.43;5.07;;;-3.20;58.30;;;;;;5057465;28;46358;-63
2022/04/04 02:28:37;;;;;;;9.50;5.50;;;-3.20;58.40;;;;;;5054926;28;46382;-62
2022/04/04 02:31:03;;;;;;;8.07;4.57;;;-3.20;58.50;;;;;;5058641;28;46504;-61
2022/04/04 02:33:29;;;;;;;11.10;4.90;;;-3.20;58.40;;;;;;5057753;28;46384;-64
2022/04/04 02:35:56;;;;;;;9.13;4.95;;;-3.30;58.50;;;;;;5059271;28;46408;-62
2022/04/04 02:38:24;;;;;;;7.78;5.25;;;-3.20;58.70;;;;;;5055960;28;46385;-61
2022/04/04 02:40:52;;;;;;;8.75;5.63;;;-3.30;58.70;;;;;;5052401;28;46629;-64
2022/04/04 02:43:18;;;;;;;11.60;6.00;;;-3.30;58.70;;;;;;5058774;28;46301;-65
2022/04/04 02:45:44;;;;;;;8.50;4.97;;;-3.30;58.80;;;;;;5056382;28;46423;-64
2022/04/04 02:48:10;;;;;;;8.68;5.03;;;-3.30;58.80;;;;;;5057589;28;46441;-64
2022/04/04 02:50:35;;;;;;;7.53;4.60;;;-3.40;58.80;;;;;;5059757;28;46354;-63
2022/04/04 02:53:02;;;;;;;7.13;4.27;;;-3.40;59.00;;;;;;5061109;28;46546;-63
2022/04/04 02:58:12;;;;;;;6.35;3.95;;;-3.40;59.10;;;;;;5056172;28;46003;-63
2022/04/04 03:00:37;;;;;;;6.73;4.37;;;-3.40;60.20;;;;;;5059493;28;46722;-64
2022/04/04 03:03:03;;;;;;;6.97;4.60;;;-3.40;59.20;;;;;;5058853;28;46512;-63
2022/04/04 03:05:29;;;;;;;9.97;5.40;;;-3.40;59.10;;;;;;5061550;28;46269;-64
2022/04/04 03:07:54;;;;;;;10.77;5.53;;;-3.40;59.20;;;;;;5060949;28;46429;-64
2022/04/04 03:10:20;;;;;;;7.87;5.40;;;-3.40;59.40;;;;;;5059609;28;46453;-64
2022/04/04 03:12:48;;;;;;;8.83;4.87;;;-3.50;59.30;;;;;;5062408;28;46447;-63
2022/04/04 03:15:16;;;;;;;8.95;4.93;;;-3.50;59.30;;;;;;5060762;28;46342;-63
2022/04/04 03:17:44;;;;;;;9.32;5.40;;;-3.50;59.40;;;;;;5061373;28;46369;-64
2022/04/04 03:20:11;;;;;;;12.90;5.25;;;-3.50;59.40;;;;;;5059250;28;46549;-62
2022/04/04 03:22:40;;;;;;;8.00;5.22;;;-3.50;59.40;;;;;;5060403;28;46725;-63
2022/04/04 03:25:06;;;;;;;11.35;4.53;;;-3.50;59.60;;;;;;5060214;28;46315;-63
2022/04/04 03:27:32;;;;;;;16.98;6.70;;;-3.50;59.60;;;;;;5057633;28;47320;-63
2022/04/04 03:29:58;;;;;;;10.43;5.90;;;-3.60;59.60;;;;;;5060408;28;46730;-64
2022/04/04 03:32:23;;;;;;;10.60;5.57;;;-3.50;59.70;;;;;;5058103;28;46282;-63
2022/04/04 03:34:49;;;;;;;14.80;6.73;;;-3.60;59.80;;;;;;5060936;28;45844;-62
2022/04/04 03:37:16;;;;;;;15.40;7.10;;;-3.60;59.80;;;;;;5060545;28;46503;-64
2022/04/04 03:39:42;;;;;;;36.97;13.43;;;-3.60;59.70;;;;;;5060031;28;46583;-63
2022/04/04 03:42:08;;;;;;;43.70;13.77;;;-3.60;59.90;;;;;;5061749;28;46490;-62
2022/04/04 03:44:33;;;;;;;34.00;12.73;;;-3.60;60.20;;;;;;5061258;28;46234;-63
2022/04/04 03:46:59;;;;;;;33.27;12.13;;;-3.60;60.00;;;;;;5061100;28;46409;-62
2022/04/04 03:49:24;;;;;;;29.60;11.77;;;-3.60;60.00;;;;;;5059325;28;45818;-63
2022/04/04 03:51:50;;;;;;;25.63;10.97;;;-3.60;60.00;;;;;;5056998;28;46304;-63
2022/04/04 03:54:16;;;;;;;24.77;9.77;;;-3.70;60.00;;;;;;5060457;28;46606;-64
2022/04/04 03:56:43;;;;;;;22.58;8.63;;;-3.70;60.00;;;;;;5060757;28;46303;-63
2022/04/04 03:59:09;;;;;;;26.30;10.65;;;-3.70;60.00;;;;;;5059619;28;46010;-63
2022/04/04 04:01:35;;;;;;;21.13;8.73;;;-3.70;60.00;;;;;;5051813;28;46479;-64
2022/04/04 04:04:00;;;;;;;19.40;7.33;;;-3.70;60.00;;;;;;5060918;28;46420;-63
2022/04/04 04:06:26;;;;;;;11.50;5.60;;;-3.70;60.00;;;;;;5056276;28;46589;-64
2022/04/04 04:08:51;;;;;;;11.47;6.30;;;-3.70;60.00;;;;;;5055364;28;45782;-64
2022/04/04 04:11:18;;;;;;;12.23;6.50;;;-3.70;60.00;;;;;;5058831;28;46292;-64
2022/04/04 04:13:45;;;;;;;12.73;7.10;;;-3.70;60.00;;;;;;5051770;28;46381;-64
2022/04/04 04:16:13;;;;;;;11.65;6.97;;;-3.70;60.00;;;;;;5053608;28;47042;-64
2022/04/04 04:18:39;;;;;;;12.52;6.97;;;-3.70;60.00;;;;;;5058736;28;46362;-63
2022/04/04 04:21:06;;;;;;;15.20;7.32;;;-3.70;60.00;;;;;;5059926;28;46679;-64
2022/04/04 04:23:33;;;;;;;13.43;7.53;;;-3.70;61.30;;;;;;5060070;28;46404;-64
2022/04/04 04:25:59;;;;;;;14.82;7.72;;;-3.70;60.20;;;;;;5058231;28;46413;-64
2022/04/04 04:28:24;;;;;;;15.03;7.90;;;-3.80;60.10;;;;;;5057773;28;46427;-64
2022/04/04 04:30:50;;;;;;;21.90;9.03;;;-3.70;60.30;;;;;;5060566;28;46303;-63
2022/04/04 04:33:16;;;;;;;16.33;8.57;;;-3.70;60.20;;;;;;5060582;28;46434;-64
2022/04/04 04:35:41;;;;;;;17.20;8.67;;;-3.80;60.10;;;;;;5054029;28;46206;-64
2022/04/04 04:38:07;;;;;;;12.13;6.83;;;-3.70;60.20;;;;;;5046836;28;46298;-64
2022/04/04 04:40:34;;;;;;;11.48;7.18;;;-3.80;60.20;;;;;;5059662;28;46234;-63
2022/04/04 04:42:59;;;;;;;13.73;7.00;;;-3.80;60.20;;;;;;5057073;28;46299;-63
2022/04/04 04:45:26;;;;;;;11.30;6.37;;;-3.80;60.20;;;;;;5054926;28;46501;-64
2022/04/04 04:47:51;;;;;;;10.80;6.32;;;-3.70;60.30;;;;;;5048726;28;46628;-64
2022/04/04 04:50:19;;;;;;;13.17;7.63;;;-3.70;60.30;;;;;;5048750;28;46366;-64
2022/04/04 04:52:46;;;;;;;10.82;6.43;;;-3.70;60.30;;;;;;5065140;28;46315;-64
2022/04/04 04:55:13;;;;;;;9.80;6.07;;;-3.70;60.30;;;;;;5062937;28;47073;-64
2022/04/04 04:57:39;;;;;;;12.52;7.65;;;-3.70;60.40;;;;;;5063285;28;46277;-63
2022/04/04 05:00:08;;;;;;;13.43;7.63;;;-3.70;60.20;;;;;;5062759;28;46466;-64
2022/04/04 05:02:34;;;;;;;14.23;6.82;;;-3.60;60.40;;;;;;5065792;28;46790;-64
2022/04/04 05:05:00;;;;;;;14.77;7.70;;;-3.60;60.30;;;;;;5063515;28;46381;-63
2022/04/04 05:07:26;;;;;;;14.18;7.75;;;-3.60;60.40;;;;;;5064157;28;46265;-64
2022/04/04 05:09:52;;;;;;;13.43;8.00;;;-3.50;60.20;;;;;;5062579;28;46105;-63
2022/04/04 05:12:17;;;;;;;13.40;7.03;;;-3.40;60.20;;;;;;5057207;28;46196;-63
2022/04/04 05:14:43;;;;;;;12.53;6.90;;;-3.40;60.10;;;;;;5061945;28;47045;-63
2022/04/04 05:17:08;;;;;;;14.20;8.10;;;-3.30;60.20;;;;;;5062331;28;46369;-63
2022/04/04 05:19:35;;;;;;;20.23;10.10;;;-3.30;60.20;;;;;;5060865;28;45869;-65
2022/04/04 05:22:00;;;;;;;17.60;11.50;;;-3.20;60.30;;;;;;5056729;28;46350;-64
2022/04/04 05:24:27;;;;;;;16.20;9.97;;;-3.10;60.20;;;;;;5062648;28;47777;-63
2022/04/04 05:26:54;;;;;;;15.93;10.43;;;-3.00;60.10;;;;;;5056675;28;46431;-62
2022/04/04 05:29:19;;;;;;;18.10;11.60;;;-2.90;60.10;;;;;;5063051;28;46449;-63
2022/04/04 05:31:45;;;;;;;24.87;15.87;;;-2.70;60.00;;;;;;5062418;28;46340;-63
2022/04/04 05:34:11;;;;;;;17.57;11.00;;;-2.20;59.60;;;;;;5062632;28;47269;-63
2022/04/04 05:36:36;;;;;;;12.13;7.63;;;-1.30;60.20;;;;;;5061940;28;46559;-63
2022/04/04 05:39:04;;;;;;;10.20;7.23;;;-0.50;61.00;;;;;;5063294;28;46377;-62
2022/04/04 05:41:29;;;;;;;9.98;7.03;;;0.30;60.90;;;;;;5062761;28;46508;-63
2022/04/04 05:43:55;;;;;;;13.33;5.90;;;1.00;60.70;;;;;;5061224;28;46526;-63
2022/04/04 05:46:21;;;;;;;10.38;5.68;;;1.70;60.70;;;;;;5060330;28;45945;-63
2022/04/04 05:48:48;;;;;;;10.10;7.43;;;2.20;60.50;;;;;;5060142;28;46366;-62
2022/04/04 05:51:15;;;;;;;11.80;8.55;;;2.60;60.80;;;;;;5062945;28;46505;-62
2022/04/04 05:53:41;;;;;;;14.63;9.82;;;3.10;60.90;;;;;;5061960;28;46377;-63
2022/04/04 05:56:06;;;;;;;12.17;7.80;;;3.60;61.00;;;;;;5058565;28;46369;-63
2022/04/04 05:58:32;;;;;;;12.03;7.00;;;4.00;60.20;;;;;;5057669;28;46457;-63
2022/04/04 06:00:58;;;;;;;10.60;6.50;;;4.20;60.10;;;;;;5062314;28;46597;-64
2022/04/04 06:03:24;;;;;;;10.00;5.60;;;4.40;59.30;;;;;;5054513;28;48076;-64
2022/04/04 06:05:51;;;;;;;10.43;6.00;;;4.60;58.40;;;;;;5059675;28;46477;-62
2022/04/04 06:08:18;;;;;;;30.97;17.17;;;4.40;56.20;;;;;;5061629;28;46356;-65
2022/04/04 06:10:45;;;;;;;20.17;12.65;;;3.80;56.10;;;;;;5062214;28;46437;-64
2022/04/04 06:13:13;;;;;;;17.98;11.65;;;3.20;57.00;;;;;;5050273;28;46485;-64
2022/04/04 06:15:40;;;;;;;13.45;7.70;;;2.70;58.20;;;;;;5033770;28;46399;-64
2022/04/04 06:18:06;;;;;;;15.30;9.38;;;2.50;59.00;;;;;;5034076;28;46492;-63
2022/04/04 06:20:32;;;;;;;15.47;9.37;;;2.40;60.00;;;;;;5034529;28;46641;-65
2022/04/04 06:22:57;;;;;;;11.93;7.60;;;2.70;59.30;;;;;;5060129;28;46397;-67
2022/04/04 06:25:23;;;;;;;11.33;6.57;;;3.30;57.30;;;;;;5062040;28;46462;-65
2022/04/04 06:27:49;;;;;;;10.60;6.50;;;3.50;55.60;;;;;;5061146;28;46323;-68
2022/04/04 06:30:15;;;;;;;11.07;6.35;;;3.20;55.80;;;;;;5055927;28;46454;-66
2022/04/04 06:32:43;;;;;;;14.90;6.90;;;2.90;56.10;;;;;;5056512;28;46280;-64
2022/04/04 06:35:10;;;;;;;12.60;7.97;;;2.70;56.40;;;;;;5063172;28;46291;-68
2022/04/04 06:37:36;;;;;;;11.57;6.95;;;2.60;56.70;;;;;;5055943;28;46077;-65
2022/04/04 06:40:03;;;;;;;10.67;6.83;;;2.60;56.90;;;;;;5057431;28;46386;-64
2022/04/04 06:42:31;;;;;;;8.18;5.50;;;2.60;56.90;;;;;;5052148;28;46490;-67
2022/04/04 06:44:58;;;;;;;9.07;6.45;;;2.70;56.80;;;;;;5058720;28;46339;-64
2022/04/04 06:47:24;;;;;;;9.57;6.40;;;2.70;56.60;;;;;;5054644;28;46295;-65
2022/04/04 06:49:52;;;;;;;14.33;7.60;;;2.80;56.50;;;;;;5061775;28;46405;-66
2022/04/04 06:52:19;;;;;;;9.55;6.65;;;2.90;57.60;;;;;;5059839;28;46332;-66
2022/04/04 06:54:44;;;;;;;13.10;7.40;;;3.00;56.20;;;;;;5061469;28;46334;-67
2022/04/04 06:57:10;;;;;;;11.60;6.43;;;3.20;56.10;;;;;;5058547;28;46370;-67
2022/04/04 06:59:36;;;;;;;10.20;7.20;;;3.30;55.90;;;;;;5050961;28;46259;-66
2022/04/04 07:02:01;;;;;;;7.87;5.53;;;3.30;55.70;;;;;;5054024;28;47244;-66
2022/04/04 07:04:27;;;;;;;8.37;4.80;;;3.50;55.50;;;;;;5058760;28;46390;-65
2022/04/04 07:06:52;;;;;;;9.57;4.93;;;3.70;56.40;;;;;;5057160;28;46271;-66
2022/04/04 07:09:18;;;;;;;7.07;4.90;;;3.80;55.10;;;;;;5060211;28;46641;-71
2022/04/04 07:11:44;;;;;;;8.70;4.80;;;4.00;55.00;;;;;;5056512;28;46472;-64
2022/04/04 07:14:10;;;;;;;5.73;4.60;;;4.10;54.80;;;;;;5057808;28;46377;-67
2022/04/04 07:16:36;;;;;;;9.23;4.68;;;4.30;54.60;;;;;;5057865;28;46289;-65
2022/04/04 07:19:02;;;;;;;8.63;5.13;;;4.40;54.30;;;;;;5053614;28;46547;-64
2022/04/04 07:21:28;;;;;;;6.27;4.27;;;4.40;54.20;;;;;;5061513;28;46392;-65
2022/04/04 07:23:54;;;;;;;5.93;4.38;;;4.60;54.10;;;;;;5059152;28;46528;-66
2022/04/04 07:26:21;;;;;;;5.43;3.85;;;4.70;53.80;;;;;;5060229;28;46285;-65
2022/04/04 07:28:47;;;;;;;5.77;3.80;;;4.80;53.50;;;;;;5061112;28;46469;-64
2022/04/04 07:31:15;;;;;;;6.47;4.20;;;4.90;53.30;;;;;;5059796;28;46393;-65
2022/04/04 07:33:41;;;;;;;5.70;3.83;;;5.00;53.00;;;;;;5061030;28;46413;-64
2022/04/04 07:36:07;;;;;;;7.10;3.80;;;5.00;52.80;;;;;;5057096;28;46326;-66
2022/04/04 07:38:33;;;;;;;5.17;3.20;;;5.20;52.70;;;;;;5059971;28;46407;-65
2022/04/04 07:40:59;;;;;;;6.30;3.70;;;5.40;52.10;;;;;;5060756;28;46421;-67
2022/04/04 07:43:26;;;;;;;6.60;3.60;;;5.50;51.90;;;;;;5058746;28;46414;-66
2022/04/04 07:45:52;;;;;;;8.03;3.33;;;5.50;51.50;;;;;;5060998;28;45822;-66
2022/04/04 07:48:17;;;;;;;6.73;2.87;;;5.60;51.20;;;;;;5060006;28;46392;-66
2022/04/04 07:50:45;;;;;;;4.17;2.67;;;5.60;51.00;;;;;;5057601;28;47177;-64
2022/04/04 07:53:11;;;;;;;4.23;2.63;;;5.60;50.70;;;;;;5060711;28;46502;-65
2022/04/04 07:55:37;;;;;;;5.30;3.23;;;5.60;50.60;;;;;;5061061;28;46437;-67
2022/04/04 07:58:04;;;;;;;5.17;3.20;;;5.60;50.30;;;;;;5059243;28;46342;-66
2022/04/04 08:00:29;;;;;;;5.30;2.70;;;5.60;49.80;;;;;;5059598;28;47303;-67
2022/04/04 08:02:55;;;;;;;4.73;3.00;;;5.60;49.40;;;;;;5060254;28;46726;-65
2022/04/04 08:05:21;;;;;;;7.80;2.97;;;5.70;48.90;;;;;;5059724;28;46416;-64
2022/04/04 08:07:48;;;;;;;4.77;2.77;;;5.80;49.10;;;;;;5058602;28;46411;-62
2022/04/04 08:10:15;;;;;;;4.67;2.50;;;5.90;49.10;;;;;;5059126;28;46384;-65
2022/04/04 08:12:41;;;;;;;4.40;2.63;;;5.80;48.60;;;;;;5058256;28;46446;-66
2022/04/04 08:15:08;;;;;;;4.00;2.70;;;5.90;47.90;;;;;;5056456;28;46469;-65
2022/04/04 08:17:34;;;;;;;3.80;2.90;;;6.00;47.30;;;;;;5059223;28;46533;-63
2022/04/04 08:20:00;;;;;;;4.10;2.63;;;6.10;46.90;;;;;;5057147;28;46434;-65
2022/04/04 08:22:26;;;;;;;3.30;2.53;;;6.10;46.70;;;;;;5058590;28;46397;-65
2022/04/04 08:24:52;;;;;;;3.60;2.60;;;6.10;46.20;;;;;;5059055;28;45815;-64
2022/04/04 08:27:18;;;;;;;11.30;3.07;;;6.00;46.10;;;;;;5064179;28;46272;-66
2022/04/04 08:29:43;;;;;;;7.53;3.20;;;6.10;45.80;;;;;;5058738;28;46376;-63
2022/04/04 08:32:09;;;;;;;6.07;3.40;;;6.20;45.60;;;;;;5061208;28;46524;-65
2022/04/04 08:34:35;;;;;;;9.80;2.90;;;6.00;44.70;;;;;;5062571;28;46322;-65
2022/04/04 08:37:01;;;;;;;7.40;3.63;;;5.60;43.30;;;;;;5060485;28;46448;-65
2022/04/04 08:39:28;;;;;;;4.50;3.17;;;5.60;44.60;;;;;;5064017;28;46811;-66
2022/04/04 08:41:55;;;;;;;8.83;2.93;;;5.70;44.50;;;;;;5063519;28;46445;-66
2022/04/04 08:44:21;;;;;;;8.33;3.47;;;5.80;44.60;;;;;;5063276;28;46503;-65
2022/04/04 08:46:48;;;;;;;4.83;3.30;;;5.80;44.40;;;;;;5063255;28;46524;-66
2022/04/04 08:49:14;;;;;;;5.57;3.67;;;5.90;44.30;;;;;;5061003;28;47134;-65
2022/04/04 08:51:42;;;;;;;4.40;3.13;;;6.00;44.00;;;;;;5062233;28;46348;-65
2022/04/04 08:54:07;;;;;;;4.70;3.20;;;5.90;44.00;;;;;;5060720;28;46069;-63
2022/04/04 08:56:34;;;;;;;5.20;2.97;;;6.00;43.80;;;;;;5062732;28;46406;-66
2022/04/04 08:59:00;;;;;;;4.30;3.10;;;5.90;43.70;;;;;;5055106;28;48263;-65
2022/04/04 09:01:27;;;;;;;5.70;3.00;;;6.00;43.60;;;;;;5063432;28;46431;-64
2022/04/04 09:04:01;;;;;;;5.30;3.33;;;6.10;43.40;;;;;;5056722;28;46377;-63
2022/04/04 09:06:28;;;;;;;7.50;2.70;;;6.00;42.70;;;;;;5065023;28;46315;-64
2022/04/04 09:08:55;;;;;;;10.50;3.47;;;6.00;43.00;;;;;;5059378;28;46436;-66
2022/04/04 09:11:21;;;;;;;6.73;2.80;;;6.10;42.90;;;;;;5054029;28;46443;-64
2022/04/04 09:14:07;;;;;;;5.43;2.90;;;6.20;42.60;;;;;;5058780;28;46425;-64
2022/04/04 09:16:34;;;;;;;4.73;3.40;;;6.30;42.40;;;;;;5051806;28;46515;-64
2022/04/04 09:19:00;;;;;;;3.93;3.17;;;6.20;42.50;;;;;;5062803;28;46148;-64
2022/04/04 09:21:26;;;;;;;6.50;3.93;;;6.00;40.90;;;;;;5058851;28;46448;-63
2022/04/04 09:23:57;;;;;;;4.10;3.00;;;5.90;41.90;;;;;;5052205;28;46419;-64
2022/04/04 09:26:29;;;;;;;5.63;3.17;;;5.80;41.70;;;;;;5055211;28;46354;-63
2022/04/04 09:28:59;;;;;;;6.40;3.73;;;5.90;41.80;;;;;;5056082;28;47409;-64
2022/04/04 09:31:25;;;;;;;8.73;3.50;;;5.90;41.90;;;;;;5060208;28;46510;-62
2022/04/04 09:33:51;;;;;;;5.73;3.73;;;5.80;41.50;;;;;;5062223;28;46557;-65
2022/04/04 09:36:17;;;;;;;5.30;3.47;;;5.80;41.70;;;;;;5062425;28;46443;-63
2022/04/04 09:38:53;;;;;;;8.33;3.40;;;5.90;41.90;;;;;;5063308;28;48034;-63
2022/04/04 09:41:24;;;;;;;5.27;3.53;;;5.90;41.80;;;;;;5060436;28;46281;-65
2022/04/04 09:43:58;;;;;;;5.53;4.00;;;5.90;41.90;;;;;;5056129;28;46428;-66
2022/04/04 09:46:31;;;;;;;5.90;3.80;;;5.90;41.60;;;;;;5056719;28;46536;-64
2022/04/04 09:49:13;;;;;;;8.43;4.10;;;5.90;41.70;;;;;;5061606;28;48853;-66
2022/04/04 09:51:41;;;;;;;5.77;3.90;;;5.90;41.30;;;;;;5052767;28;46384;-63
2022/04/04 09:54:10;;;;;;;7.73;4.77;;;5.50;40.20;;;;;;5061677;28;46495;-66
2022/04/04 09:56:36;;;;;;;5.60;4.13;;;5.40;41.40;;;;;;5061573;28;46244;-63
2022/04/04 09:59:02;;;;;;;5.83;4.37;;;5.70;41.90;;;;;;5062798;28;47202;-64
2022/04/04 10:01:30;;;;;;;7.10;4.40;;;5.80;41.90;;;;;;5061690;28;46378;-64
2022/04/04 10:03:57;;;;;;;8.47;4.23;;;5.80;41.40;;;;;;5061338;28;46496;-63
2022/04/04 10:06:27;;;;;;;5.83;4.10;;;5.60;42.10;;;;;;5061899;28;46341;-63
2022/04/04 10:08:58;;;;;;;8.23;5.40;;;5.70;42.40;;;;;;5062438;28;46382;-63
2022/04/04 10:11:24;;;;;;;8.87;4.60;;;5.90;42.40;;;;;;5059193;28;46591;-63
2022/04/04 10:13:52;;;;;;;6.93;5.37;;;5.90;42.30;;;;;;5055361;28;46555;-65
2022/04/04 10:16:18;;;;;;;7.03;4.83;;;5.90;42.30;;;;;;5060915;28;46541;-62
2022/04/04 10:18:45;;;;;;;6.50;4.47;;;6.10;42.30;;;;;;5059442;28;47609;-66
2022/04/04 10:21:11;;;;;;;9.07;5.20;;;6.20;42.10;;;;;;5060977;28;46441;-66
2022/04/04 10:23:40;;;;;;;5.93;4.20;;;6.20;42.10;;;;;;5062826;28;46448;-65
2022/04/04 10:26:07;;;;;;;7.30;4.90;;;6.20;42.60;;;;;;5061021;28;46375;-65
2022/04/04 10:28:38;;;;;;;6.87;4.73;;;6.20;42.80;;;;;;5062139;28;47064;-64
2022/04/04 10:31:21;;;;;;;8.30;5.93;;;6.10;42.60;;;;;;5060838;28;46485;-63
2022/04/04 10:33:49;;;;;;;6.70;4.73;;;6.00;42.40;;;;;;5060014;28;46478;-64
2022/04/04 10:36:22;;;;;;;7.40;5.23;;;5.90;42.60;;;;;;5058267;28;46574;-67
2022/04/04 10:38:50;;;;;;;7.70;5.13;;;5.90;43.00;;;;;;5060702;28;48015;-64
2022/04/04 10:41:19;;;;;;;6.97;5.07;;;6.10;42.90;;;;;;5061812;28;45918;-65
2022/04/04 10:43:47;;;;;;;7.13;4.80;;;6.40;42.80;;;;;;5052545;28;46360;-63
2022/04/04 10:46:15;;;;;;;8.43;5.27;;;6.50;43.40;;;;;;5060980;28;46575;-64
2022/04/04 10:48:47;;;;;;;7.53;5.70;;;6.50;42.80;;;;;;5056681;28;46962;-64
2022/04/04 10:51:25;;;;;;;9.23;5.27;;;6.50;43.90;;;;;;5059073;28;46509;-64
2022/04/04 10:53:57;;;;;;;8.97;5.90;;;6.30;43.80;;;;;;5057396;28;46554;-67
2022/04/04 10:56:37;;;;;;;10.93;6.57;;;6.00;44.50;;;;;;5058202;28;46373;-66
2022/04/04 10:59:23;;;;;;;13.23;6.30;;;6.30;44.60;;;;;;5055730;28;46282;-64
2022/04/04 11:01:56;;;;;;;9.00;5.57;;;6.70;44.00;;;;;;5058332;28;46416;-66
2022/04/04 11:04:27;;;;;;;11.00;5.23;;;6.80;43.80;;;;;;5055871;28;46398;-66
2022/04/04 11:10:07;;;;;;;10.23;6.33;;;6.60;44.10;;;;;;5060083;28;46350;-64
2022/04/04 11:13:02;;;;;;;7.07;5.30;;;6.50;44.70;;;;;;5060511;28;46402;-64
2022/04/04 11:15:43;;;;;;;8.40;5.80;;;7.00;44.10;;;;;;5058533;28;46790;-64
2022/04/04 11:18:14;;;;;;;17.83;6.53;;;7.20;43.80;;;;;;5059653;28;46452;-63
2022/04/04 11:20:59;;;;;;;8.47;6.23;;;7.30;43.30;;;;;;5059054;28;46473;-61
2022/04/04 11:23:34;;;;;;;8.67;6.00;;;7.50;43.20;;;;;;5059515;28;46769;-63
2022/04/04 11:26:01;;;;;;;9.37;6.30;;;7.60;42.70;;;;;;5061345;28;46296;-65
2022/04/04 11:28:31;;;;;;;8.60;6.33;;;7.30;43.10;;;;;;5060477;28;46358;-64
2022/04/04 11:31:07;;;;;;;10.47;5.93;;;7.50;43.40;;;;;;5058517;28;47250;-63
2022/04/04 11:33:45;;;;;;;15.13;7.30;;;7.70;43.20;;;;;;5060259;28;46370;-66
2022/04/04 11:36:20;;;;;;;9.03;6.83;;;7.60;42.50;;;;;;5060126;28;46434;-64
2022/04/04 11:38:47;;;;;;;10.73;6.30;;;7.40;43.10;;;;;;5056542;28;46484;-63
2022/04/04 11:41:12;;;;;;;9.40;5.60;;;7.40;43.70;;;;;;5060162;28;46347;-63
2022/04/04 11:43:40;;;;;;;10.07;6.50;;;7.50;43.50;;;;;;5054917;28;46399;-64
2022/04/04 11:46:14;;;;;;;10.47;5.63;;;7.60;43.50;;;;;;5058560;28;46436;-65
2022/04/04 11:48:54;;;;;;;9.70;6.63;;;7.60;43.10;;;;;;5057467;28;46343;-64
2022/04/04 11:51:23;;;;;;;10.73;6.70;;;7.10;43.50;;;;;;5058039;28;47140;-64
2022/04/04 11:53:51;;;;;;;7.30;5.00;;;7.20;43.90;;;;;;5055664;28;46369;-64
2022/04/04 11:56:21;;;;;;;10.47;6.50;;;7.20;44.40;;;;;;5050457;28;46382;-66
2022/04/04 11:58:51;;;;;;;10.40;6.20;;;7.10;46.70;;;;;;5059257;28;46389;-63
2022/04/04 12:01:16;;;;;;;9.20;6.70;;;7.10;45.70;;;;;;5051728;28;48034;-65
2022/04/04 12:03:49;;;;;;;10.00;6.97;;;7.20;45.20;;;;;;5046122;28;46426;-64
2022/04/04 12:06:15;;;;;;;10.20;7.40;;;7.20;44.80;;;;;;5060561;28;46670;-66
2022/04/04 12:08:45;;;;;;;17.50;12.10;;;7.20;44.40;;;;;;5060495;28;46453;-66
2022/04/04 12:11:11;;;;;;;42.77;21.60;;;7.40;44.00;;;;;;5056500;28;46446;-64
2022/04/04 12:13:53;;;;;;;14.27;8.77;;;7.50;43.80;;;;;;5056483;28;46442;-63
2022/04/04 12:16:19;;;;;;;21.70;11.80;;;7.20;43.60;;;;;;5057041;28;46577;-63
2022/04/04 12:18:57;;;;;;;22.43;12.50;;;6.70;44.70;;;;;;5056193;28;46362;-63
2022/04/04 12:21:23;;;;;;;9.47;7.00;;;6.50;45.80;;;;;;5047912;28;46337;-64
2022/04/04 12:26:35;;;;;;;15.90;9.70;;;6.20;47.00;;;;;;5056135;28;46335;-64
2022/04/04 12:29:00;;;;;;;22.10;11.73;;;6.10;48.80;;;;;;5059560;28;45800;-64
2022/04/04 12:31:28;;;;;;;13.27;8.43;;;6.20;48.00;;;;;;5060328;28;46369;-63
2022/04/04 12:34:10;;;;;;;11.87;8.47;;;6.60;47.60;;;;;;5059252;28;46359;-64
2022/04/04 12:36:41;;;;;;;11.07;7.97;;;6.90;47.00;;;;;;5059163;28;46433;-66
2022/04/04 12:39:13;;;;;;;13.00;7.80;;;7.10;46.30;;;;;;5058644;28;46300;-64
2022/04/04 12:41:53;;;;;;;12.70;7.40;;;7.20;47.40;;;;;;5059144;28;46429;-66
2022/04/04 12:44:23;;;;;;;12.37;7.07;;;7.40;47.80;;;;;;5060406;28;46582;-63
2022/04/04 12:46:50;;;;;;;10.90;6.90;;;7.60;46.30;;;;;;5061381;28;46679;-65
2022/04/04 12:49:23;;;;;;;10.87;7.73;;;7.80;46.10;;;;;;5056640;28;46619;-65
2022/04/04 12:51:58;;;;;;;11.70;7.97;;;7.80;45.60;;;;;;5057772;28;46485;-64
2022/04/04 12:54:34;;;;;;;10.77;6.70;;;7.80;45.60;;;;;;5057792;28;46495;-63
2022/04/04 12:57:05;;;;;;;14.33;7.00;;;7.80;45.30;;;;;;5057896;28;46349;-63
2022/04/04 12:59:46;;;;;;;10.97;6.73;;;7.60;45.60;;;;;;5051747;28;46424;-64